Portada
METAR-TAF:

METAR-TAF

Aeroports :

Yap, Micronèsia

latitud: 09-29N, longitud: 138-05E, altitud: 28 m

Observació

L'informe es va fer fa 43 minuts, a les 13:50 UTC
Vent 7 kt del Est/Nord-Est
Temperatura 29°C
Humitat 84%
Pressió 1012 hPa
Visibilitat: 19.3 km
Núvols disperses a una alçada de 1600 ft
Núvols disperses a una alçada de 13000 ft
Cel ennuvolat a una alçada de 30000 ft

METAR: PTYA 261350Z 06007KT 12SM SCT016 SCT130 BKN300 29/26 A2987 RMK SLP115 T02870263

Hora: 00:33 (14:33 UTC)

Pronòstic

L'informe es va fer fa 3 hores i 5 minuts, a les 11:28 UTC
Pronòstic vàlid del 26 a les 12 UTC al 27 a les 12 UTC
Vent 11 kt del Est/Nord-Est
Visibilitat: 10 km
Escasses núvols a una alçada de 1600 ft
A partir de les 27 a les 0000 UTC
Vent 11 kt del Est/Nord-Est amb ràfegues de 20 kt
Visibilitat: 10 km
Núvols disperses a una alçada de 1600 ft
Núvols disperses a una alçada de 5000 ft
xàfecs en les proximitats

TAF: PTYA 261128Z 2612/2712 06011KT P6SM FEW016 FM270000 06011G20KT P6SM VCSH SCT016 SCT050

Observacions i pronòstics meteorològics de més de 4000 aeroports (METAR i TAF).

Les estacions disponibles són els punts grocs i vermells al mapa.

Posi el ratolí al punt desitjat per veure el nom de l'estació.

Feu clic per veure les observacions i els pronòstics meteorològics.

Per canviar el mapa: feu clic els botons verds amb una creu de color negre per apropar; al botó verd amb un guió per allunyar la imatge; o en les fletxes verdes per a mapes adjacents.


METAR-TAF: